Time;durP1;ratioP1;P1;durP2;ratioP2;P2;SDS_P1;SDS_P2;PMS_P1;PMS_P2;Temp;Humidity;BMP_temperature;BMP_pressure;BME280_temperature;BME280_humidity;BME280_pressure;Samples;Min_cycle;Max_cycle;Signal;HPM_P1;HPM_P2
2022/05/31 04:01:26;;;;;;;7.47;3.53;;;10.90;99.90;;;;;;5563103;23;20506;-64
2022/05/31 04:03:53;;;;;;;6.57;3.97;;;11.00;99.90;;;;;;5014950;28;20817;-64
2022/05/31 04:06:20;;;;;;;4.10;3.80;;;11.00;99.90;;;;;;5014382;28;21046;-64
2022/05/31 04:08:47;;;;;;;4.03;3.63;;;11.10;99.90;;;;;;5014675;28;20457;-64
2022/05/31 04:11:14;;;;;;;5.17;3.90;;;11.20;99.90;;;;;;5014859;28;20488;-65
2022/05/31 04:13:40;;;;;;;4.17;3.87;;;11.30;99.90;;;;;;5014934;28;20460;-64
2022/05/31 04:16:10;;;;;;;3.80;3.40;;;11.40;99.90;;;;;;5015080;28;20453;-64
2022/05/31 04:18:38;;;;;;;4.23;3.83;;;11.50;99.90;;;;;;5015231;28;20453;-64
2022/05/31 04:21:07;;;;;;;4.67;4.27;;;11.60;99.90;;;;;;5014245;28;20504;-64
2022/05/31 04:26:19;;;;;;;4.23;3.93;;;11.70;99.90;;;;;;5015057;28;20455;-64
2022/05/31 04:28:45;;;;;;;3.33;3.03;;;11.70;99.90;;;;;;5014918;28;20456;-64
2022/05/31 04:31:12;;;;;;;3.77;3.50;;;11.80;99.90;;;;;;5014723;28;20531;-63
2022/05/31 04:33:41;;;;;;;4.23;3.87;;;11.80;99.90;;;;;;5014598;28;20858;-64
2022/05/31 04:36:10;;;;;;;4.53;4.13;;;11.80;99.90;;;;;;5014338;28;20453;-65
2022/05/31 04:38:37;;;;;;;4.77;4.20;;;11.70;99.90;;;;;;5025105;28;20453;-64
2022/05/31 04:41:04;;;;;;;4.23;4.00;;;11.70;99.90;;;;;;5027606;28;20473;-64
2022/05/31 04:43:31;;;;;;;5.20;4.80;;;11.60;99.90;;;;;;5015707;28;20472;-65
2022/05/31 04:45:58;;;;;;;6.80;4.43;;;11.60;99.90;;;;;;5014848;28;20975;-64
2022/05/31 04:48:25;;;;;;;4.43;4.10;;;11.60;99.90;;;;;;5016575;28;20457;-64
2022/05/31 04:50:53;;;;;;;4.67;4.37;;;11.50;99.90;;;;;;5019308;28;20473;-63
2022/05/31 04:53:20;;;;;;;4.60;4.20;;;11.50;99.90;;;;;;5020849;28;20452;-64
2022/05/31 04:55:47;;;;;;;4.50;4.20;;;11.50;99.90;;;;;;5018457;28;20449;-64
2022/05/31 04:58:14;;;;;;;4.07;3.87;;;11.40;99.90;;;;;;5018323;28;20464;-63
2022/05/31 05:00:40;;;;;;;4.97;4.57;;;11.40;99.90;;;;;;5018817;28;20491;-65
2022/05/31 05:03:07;;;;;;;4.90;4.50;;;11.40;99.90;;;;;;5017901;28;20440;-65
2022/05/31 05:05:34;;;;;;;4.47;4.17;;;11.40;99.90;;;;;;5018288;28;20491;-64
2022/05/31 05:08:03;;;;;;;4.67;4.27;;;11.40;99.90;;;;;;5018319;28;20452;-65
2022/05/31 05:10:29;;;;;;;3.73;3.57;;;11.50;99.90;;;;;;5018266;28;20456;-64
2022/05/31 05:12:56;;;;;;;4.80;4.50;;;11.60;99.90;;;;;;5018273;28;20449;-65
2022/05/31 05:15:23;;;;;;;4.70;4.30;;;11.60;99.90;;;;;;5018099;28;20808;-63
2022/05/31 05:17:49;;;;;;;4.93;4.33;;;11.60;99.90;;;;;;5018628;28;20464;-64
2022/05/31 05:20:16;;;;;;;4.53;4.13;;;11.70;99.90;;;;;;5018057;28;20457;-63
2022/05/31 05:22:43;;;;;;;5.30;4.80;;;11.70;99.90;;;;;;5018227;28;20456;-63
2022/05/31 05:25:11;;;;;;;4.50;4.10;;;11.80;99.90;;;;;;5018135;28;20535;-63
2022/05/31 05:27:38;;;;;;;5.60;4.50;;;11.90;99.90;;;;;;5018186;28;20444;-63
2022/05/31 05:32:59;;;;;;;4.47;4.07;;;12.10;99.90;;;;;;5005287;28;20443;-64
2022/05/31 05:35:25;;;;;;;5.63;3.97;;;12.30;99.90;;;;;;5017886;28;20456;-64
2022/05/31 05:37:52;;;;;;;4.23;3.77;;;12.50;99.90;;;;;;5018001;28;20817;-64
2022/05/31 05:40:20;;;;;;;4.37;3.70;;;12.60;99.90;;;;;;5018039;28;20475;-64
2022/05/31 05:42:47;;;;;;;4.30;4.00;;;12.70;99.90;;;;;;5017819;28;20522;-64
2022/05/31 05:45:13;;;;;;;4.47;3.83;;;12.80;99.90;;;;;;5017610;28;20480;-63
2022/05/31 05:47:40;;;;;;;4.03;3.57;;;12.90;99.90;;;;;;5017515;28;20820;-63
2022/05/31 05:50:08;;;;;;;6.43;4.50;;;13.10;99.90;;;;;;5017817;28;20531;-64
2022/05/31 05:52:35;;;;;;;4.23;3.90;;;13.30;99.90;;;;;;5016947;28;20816;-62
2022/05/31 05:55:02;;;;;;;3.73;3.27;;;13.40;99.90;;;;;;5017562;28;20510;-63
2022/05/31 05:57:30;;;;;;;4.10;3.80;;;13.60;99.90;;;;;;5017585;28;20480;-62
2022/05/31 05:59:57;;;;;;;4.80;3.90;;;13.80;99.90;;;;;;5021092;28;20471;-63
2022/05/31 06:02:29;;;;;;;4.10;3.90;;;14.00;99.90;;;;;;5017468;28;20492;-63
2022/05/31 06:05:03;;;;;;;3.80;3.60;;;14.30;99.90;;;;;;5017230;28;20556;-63
2022/05/31 06:07:33;;;;;;;3.80;3.60;;;14.50;99.90;;;;;;5017179;28;20445;-63
2022/05/31 06:10:05;;;;;;;3.53;3.33;;;14.70;99.90;;;;;;5017624;28;20460;-63
2022/05/31 06:12:39;;;;;;;4.53;3.70;;;15.00;99.90;;;;;;5017102;28;20477;-62
2022/05/31 06:15:12;;;;;;;4.40;4.00;;;15.30;99.90;;;;;;5016800;28;20437;-63
2022/05/31 06:17:44;;;;;;;6.13;3.20;;;15.60;99.90;;;;;;5016531;28;20912;-64
2022/05/31 06:20:11;;;;;;;3.27;2.97;;;15.90;99.90;;;;;;5016731;28;20908;-64
2022/05/31 06:22:40;;;;;;;3.67;3.37;;;15.90;99.90;;;;;;5017429;28;20456;-64
2022/05/31 06:25:09;;;;;;;3.53;3.23;;;16.00;99.90;;;;;;5016901;28;20484;-63
2022/05/31 06:27:37;;;;;;;3.70;3.43;;;16.20;99.90;;;;;;5016581;28;20456;-63
2022/05/31 06:30:05;;;;;;;3.90;3.60;;;16.10;99.90;;;;;;5016567;28;20506;-62
2022/05/31 06:32:32;;;;;;;4.20;3.90;;;16.00;99.90;;;;;;5016246;28;20477;-63
2022/05/31 06:34:59;;;;;;;4.60;3.77;;;15.90;99.90;;;;;;5016374;28;20468;-64
2022/05/31 06:37:28;;;;;;;4.23;3.93;;;15.90;99.90;;;;;;5016890;28;20867;-64
2022/05/31 06:39:56;;;;;;;4.07;3.77;;;15.80;99.90;;;;;;5016919;28;20826;-63
2022/05/31 06:42:23;;;;;;;5.00;3.87;;;15.80;99.90;;;;;;5015948;28;20817;-64
2022/05/31 06:44:51;;;;;;;6.53;4.00;;;16.00;99.90;;;;;;5017840;28;20856;-62
2022/05/31 06:47:18;;;;;;;3.73;3.43;;;16.20;99.90;;;;;;5016234;28;20453;-63
2022/05/31 06:49:45;;;;;;;5.17;3.97;;;16.40;99.90;;;;;;5016472;28;20460;-64
2022/05/31 06:57:46;;;;;;;4.03;3.67;;;16.90;99.90;;;;;;5006388;28;20491;-63
2022/05/31 07:00:18;;;;;;;7.50;4.10;;;17.10;99.90;;;;;;5016046;28;20921;-63
2022/05/31 07:02:45;;;;;;;3.80;3.60;;;17.40;99.90;;;;;;5016081;28;20533;-62
2022/05/31 07:05:13;;;;;;;5.17;3.60;;;17.60;99.90;;;;;;5015982;28;20480;-64
2022/05/31 07:07:40;;;;;;;8.33;3.90;;;17.90;99.30;;;;;;5015993;28;20457;-63
2022/05/31 07:10:09;;;;;;;4.70;3.50;;;18.20;98.30;;;;;;5015757;28;20453;-63
2022/05/31 07:12:37;;;;;;;3.60;3.30;;;18.60;97.50;;;;;;5017000;28;20496;-64
2022/05/31 07:15:05;;;;;;;3.97;3.60;;;19.20;95.80;;;;;;5016074;28;20459;-63
2022/05/31 07:17:33;;;;;;;4.23;3.87;;;19.90;95.60;;;;;;5015892;28;20456;-63
2022/05/31 07:20:00;;;;;;;3.57;3.00;;;20.60;94.60;;;;;;5033221;28;20475;-64
2022/05/31 07:22:26;;;;;;;3.77;3.20;;;21.30;91.60;;;;;;5024854;28;20480;-64
2022/05/31 07:24:53;;;;;;;5.20;3.67;;;22.10;91.50;;;;;;5015737;28;20782;-64
2022/05/31 07:27:20;;;;;;;3.00;2.80;;;22.60;87.00;;;;;;5016464;28;20488;-64
2022/05/31 07:29:46;;;;;;;4.57;4.17;;;23.20;82.50;;;;;;5015312;28;20454;-63
2022/05/31 07:32:13;;;;;;;4.43;3.70;;;23.50;78.40;;;;;;5015193;28;20523;-63
2022/05/31 07:34:42;;;;;;;3.30;3.00;;;23.60;78.30;;;;;;5015286;28;20448;-63
2022/05/31 07:37:08;;;;;;;6.93;3.23;;;24.00;77.00;;;;;;5014971;28;20928;-63
2022/05/31 07:39:35;;;;;;;4.33;3.30;;;24.20;75.60;;;;;;5015128;28;20456;-63
2022/05/31 07:42:02;;;;;;;7.17;3.00;;;23.80;76.90;;;;;;5014824;28;20980;-63
2022/05/31 07:44:28;;;;;;;2.77;2.67;;;24.00;74.00;;;;;;5015096;28;20457;-63
2022/05/31 07:46:55;;;;;;;3.57;3.27;;;24.30;74.30;;;;;;5015002;28;20488;-62
2022/05/31 07:49:23;;;;;;;3.57;2.93;;;24.50;73.60;;;;;;5014949;28;20457;-63
2022/05/31 07:51:51;;;;;;;3.17;2.87;;;24.40;71.20;;;;;;5015348;28;20531;-63
2022/05/31 07:54:18;;;;;;;6.00;2.73;;;24.50;69.70;;;;;;5015316;28;20531;-63
2022/05/31 07:56:45;;;;;;;4.43;2.57;;;24.50;68.90;;;;;;5015194;28;20453;-63
2022/05/31 07:59:11;;;;;;;4.00;2.27;;;24.70;69.20;;;;;;5015175;28;20453;-63
2022/05/31 08:01:39;;;;;;;1.93;1.83;;;25.00;66.10;;;;;;5014786;28;20995;-63
2022/05/31 08:04:06;;;;;;;2.20;2.10;;;25.40;65.40;;;;;;5016125;28;20463;-63
2022/05/31 08:06:34;;;;;;;2.47;2.30;;;25.70;63.30;;;;;;5017511;28;20476;-63
2022/05/31 08:09:04;;;;;;;2.93;2.43;;;25.80;61.60;;;;;;5017522;28;20514;-63
2022/05/31 08:11:33;;;;;;;2.93;2.53;;;25.80;62.20;;;;;;5016213;28;20473;-64
2022/05/31 08:14:01;;;;;;;4.00;3.70;;;26.20;61.80;;;;;;5016824;28;20580;-68
2022/05/31 08:16:29;;;;;;;3.70;3.30;;;26.70;63.60;;;;;;5015457;28;20785;-69
2022/05/31 08:18:56;;;;;;;4.13;3.13;;;27.00;60.60;;;;;;5015289;28;20511;-69
2022/05/31 08:21:28;;;;;;;3.20;3.00;;;26.70;58.90;;;;;;5014894;28;20504;-69
2022/05/31 08:23:55;;;;;;;5.03;2.73;;;27.10;60.80;;;;;;5014027;28;20437;-68
2022/05/31 08:26:23;;;;;;;3.90;2.70;;;27.60;59.50;;;;;;5014591;28;21079;-68
2022/05/31 08:28:50;;;;;;;6.97;3.10;;;28.10;57.80;;;;;;5014441;28;20453;-67
2022/05/31 08:31:22;;;;;;;3.00;2.80;;;28.10;57.30;;;;;;5014507;28;20473;-68
2022/05/31 08:33:48;;;;;;;3.23;2.93;;;28.10;54.80;;;;;;5014743;28;20481;-68
2022/05/31 08:36:15;;;;;;;3.33;2.43;;;27.90;55.00;;;;;;5015003;28;20843;-68
2022/05/31 08:38:42;;;;;;;2.50;2.30;;;27.80;55.50;;;;;;5014747;28;20457;-68
2022/05/31 08:41:17;;;;;;;3.40;2.50;;;26.90;55.90;;;;;;5014614;28;20546;-68
2022/05/31 08:44:06;;;;;;;3.67;2.23;;;27.00;56.50;;;;;;5015557;28;20436;-68
2022/05/31 08:46:57;;;;;;;2.77;2.57;;;27.10;56.00;;;;;;5014855;28;20499;-69
2022/05/31 08:52:24;;;;;;;2.90;2.10;;;27.30;57.00;;;;;;5014527;28;20472;-68
2022/05/31 08:57:46;;;;;;;2.60;2.40;;;28.70;53.60;;;;;;5014395;28;20472;-68
2022/05/31 09:00:18;;;;;;;4.57;2.23;;;29.10;53.00;;;;;;5015373;28;20499;-69
2022/05/31 09:02:49;;;;;;;2.63;2.50;;;29.20;52.30;;;;;;5014374;28;20459;-68
2022/05/31 09:05:24;;;;;;;3.80;2.33;;;29.00;52.30;;;;;;5015174;28;20441;-68
2022/05/31 09:07:57;;;;;;;3.40;2.87;;;28.80;52.60;;;;;;5014547;28;20463;-68
2022/05/31 09:10:31;;;;;;;2.53;2.33;;;28.20;53.00;;;;;;5014717;28;20491;-69
2022/05/31 09:13:03;;;;;;;3.93;2.40;;;28.10;53.40;;;;;;5014939;28;20443;-69
2022/05/31 09:15:37;;;;;;;6.13;3.10;;;27.40;54.30;;;;;;5015032;28;20456;-68
2022/05/31 09:18:08;;;;;;;4.10;2.87;;;27.40;53.80;;;;;;5014700;28;20441;-69
2022/05/31 09:20:41;;;;;;;4.60;2.50;;;27.40;54.40;;;;;;5014582;28;20483;-68
2022/05/31 09:23:09;;;;;;;2.70;2.50;;;27.50;55.90;;;;;;5014112;28;20503;-68
2022/05/31 09:25:41;;;;;;;4.90;3.10;;;27.90;54.40;;;;;;5013555;28;20449;-68
2022/05/31 09:28:26;;;;;;;4.77;2.60;;;28.50;53.30;;;;;;5014955;28;20465;-69
2022/05/31 09:30:55;;;;;;;5.13;2.57;;;28.80;53.10;;;;;;5014118;28;20976;-68
2022/05/31 09:33:29;;;;;;;3.60;2.47;;;29.50;54.00;;;;;;5014471;28;20459;-69
2022/05/31 09:36:18;;;;;;;2.73;2.53;;;29.90;52.90;;;;;;5018251;28;20448;-68
2022/05/31 09:39:08;;;;;;;3.13;2.77;;;29.80;51.60;;;;;;5018087;28;20437;-68
2022/05/31 09:41:41;;;;;;;2.40;2.20;;;29.70;51.50;;;;;;5018027;28;20473;-68
2022/05/31 09:44:14;;;;;;;3.80;2.13;;;29.70;51.80;;;;;;5017417;28;20904;-67
2022/05/31 09:46:46;;;;;;;3.07;2.30;;;30.00;52.80;;;;;;5017794;28;20464;-69
2022/05/31 09:49:29;;;;;;;2.50;2.20;;;30.50;50.10;;;;;;5017256;28;20840;-68
2022/05/31 09:51:56;;;;;;;3.13;2.93;;;30.90;51.60;;;;;;5017110;28;20499;-69
2022/05/31 09:57:15;;;;;;;3.03;2.70;;;30.90;49.80;;;;;;5017253;28;20782;-69
2022/05/31 09:59:47;;;;;;;3.33;3.03;;;30.90;48.80;;;;;;5016924;28;20440;-68
2022/05/31 10:02:21;;;;;;;4.07;2.53;;;30.70;50.30;;;;;;5017667;28;20514;-68
2022/05/31 10:04:49;;;;;;;2.53;2.30;;;30.80;48.50;;;;;;5017019;28;20511;-68
2022/05/31 10:07:33;;;;;;;2.40;2.20;;;30.80;50.40;;;;;;5017002;28;20484;-68
2022/05/31 10:10:07;;;;;;;3.70;2.43;;;30.20;50.40;;;;;;5017138;28;20433;-69
2022/05/31 10:12:34;;;;;;;2.60;2.40;;;29.70;50.80;;;;;;5016676;28;20480;-68
2022/05/31 10:15:03;;;;;;;2.53;2.40;;;29.60;50.10;;;;;;5016834;28;20460;-68
2022/05/31 10:17:36;;;;;;;2.63;2.07;;;29.50;50.80;;;;;;5016914;28;20437;-69
2022/05/31 10:20:12;;;;;;;2.13;2.03;;;29.60;51.10;;;;;;5016766;28;20445;-69
2022/05/31 10:22:40;;;;;;;13.60;4.00;;;30.00;51.70;;;;;;5016887;28;20441;-69
2022/05/31 10:25:24;;;;;;;7.53;2.93;;;29.90;49.90;;;;;;5016762;28;20883;-68
2022/05/31 10:27:58;;;;;;;2.23;2.03;;;29.90;51.10;;;;;;5016562;28;20472;-68
2022/05/31 10:30:26;;;;;;;2.97;2.17;;;30.10;51.40;;;;;;5016628;28;20499;-68
2022/05/31 10:32:56;;;;;;;4.73;2.10;;;30.40;51.50;;;;;;5016488;28;20868;-68
2022/05/31 10:35:25;;;;;;;2.23;2.00;;;30.50;49.50;;;;;;5017034;28;20440;-68
2022/05/31 10:38:00;;;;;;;2.53;1.87;;;30.30;51.70;;;;;;5016651;28;20453;-68
2022/05/31 10:40:38;;;;;;;2.00;1.90;;;30.20;50.70;;;;;;5016606;28;20437;-68
2022/05/31 10:43:25;;;;;;;2.53;2.33;;;30.40;49.40;;;;;;5016712;28;20486;-67
2022/05/31 10:45:54;;;;;;;2.40;2.20;;;30.70;50.70;;;;;;5016461;28;20460;-68
2022/05/31 10:48:22;;;;;;;4.80;2.03;;;30.90;48.80;;;;;;5033117;28;20480;-68
2022/05/31 10:50:56;;;;;;;1.97;1.80;;;30.90;49.50;;;;;;5023243;28;20862;-67
2022/05/31 10:53:36;;;;;;;2.97;2.60;;;30.90;48.50;;;;;;5017051;28;20437;-68
2022/05/31 10:56:12;;;;;;;2.27;2.17;;;30.90;47.10;;;;;;5016330;28;20502;-68
2022/05/31 10:58:52;;;;;;;2.37;2.27;;;31.00;48.20;;;;;;5016108;28;20437;-67
2022/05/31 11:01:31;;;;;;;2.03;1.93;;;30.90;47.80;;;;;;5015838;28;20571;-67
2022/05/31 11:04:05;;;;;;;3.63;2.70;;;30.70;48.90;;;;;;5016528;28;20448;-68
2022/05/31 11:06:42;;;;;;;2.53;2.33;;;30.50;48.60;;;;;;5016033;28;20461;-67
2022/05/31 11:12:20;;;;;;;2.33;1.80;;;30.60;48.70;;;;;;5015144;28;20812;-68
2022/05/31 11:14:58;;;;;;;2.00;1.63;;;30.70;46.00;;;;;;5015564;28;20448;-68
2022/05/31 11:17:50;;;;;;;3.50;1.90;;;30.80;48.00;;;;;;5015932;28;20439;-67
2022/05/31 11:20:23;;;;;;;1.50;1.40;;;30.40;45.70;;;;;;5015838;28;20444;-67
2022/05/31 11:23:01;;;;;;;4.13;2.00;;;29.90;48.00;;;;;;5016056;28;20784;-67
2022/05/31 11:25:45;;;;;;;1.77;1.67;;;29.70;48.50;;;;;;5015269;28;20460;-67
2022/05/31 11:28:33;;;;;;;2.73;1.93;;;29.30;47.50;;;;;;5015496;28;20584;-68
2022/05/31 11:31:19;;;;;;;1.30;1.30;;;28.90;48.80;;;;;;5015330;28;20532;-68
2022/05/31 11:34:05;;;;;;;2.33;2.23;;;28.80;48.50;;;;;;5015449;28;20441;-68
2022/05/31 11:36:46;;;;;;;1.83;1.73;;;28.70;50.50;;;;;;5015269;28;20447;-68
2022/05/31 11:39:35;;;;;;;7.70;2.30;;;28.40;48.80;;;;;;5015103;28;20467;-68
2022/05/31 11:42:13;;;;;;;2.20;2.10;;;28.10;48.80;;;;;;5014910;28;20477;-68
2022/05/31 11:44:56;;;;;;;2.67;2.10;;;27.80;49.50;;;;;;5014873;28;20476;-68
2022/05/31 11:47:43;;;;;;;2.60;2.10;;;27.70;50.30;;;;;;5015298;28;20500;-67
2022/05/31 11:50:19;;;;;;;2.83;2.37;;;27.30;50.30;;;;;;5015279;28;20437;-68
2022/05/31 11:53:03;;;;;;;3.33;1.80;;;27.10;50.80;;;;;;5015111;28;20444;-67
2022/05/31 11:55:34;;;;;;;2.43;1.93;;;27.00;50.00;;;;;;5015110;28;20441;-68
2022/05/31 11:58:21;;;;;;;1.60;1.50;;;26.70;52.30;;;;;;5014614;28;20900;-68
2022/05/31 12:01:01;;;;;;;1.87;1.77;;;26.60;51.30;;;;;;5014736;28;20476;-68
2022/05/31 12:03:32;;;;;;;2.00;1.50;;;26.50;50.60;;;;;;5014954;28;20437;-67
2022/05/31 12:06:06;;;;;;;2.00;1.90;;;26.50;51.50;;;;;;5014978;28;20799;-67
2022/05/31 12:08:41;;;;;;;2.13;2.03;;;26.40;50.50;;;;;;5015065;28;20469;-67
2022/05/31 12:11:12;;;;;;;2.03;1.93;;;26.40;50.40;;;;;;5014640;28;20480;-67
2022/05/31 12:13:44;;;;;;;1.90;1.80;;;26.50;51.70;;;;;;5014287;28;20755;-68
2022/05/31 12:16:12;;;;;;;3.23;2.03;;;26.80;50.30;;;;;;5015298;28;20503;-69
2022/05/31 12:18:57;;;;;;;1.87;1.70;;;26.90;47.70;;;;;;5014099;28;20791;-68
2022/05/31 12:21:31;;;;;;;2.60;2.17;;;26.70;48.20;;;;;;5014438;28;20971;-68
2022/05/31 12:24:06;;;;;;;1.90;1.80;;;26.40;47.70;;;;;;5014199;28;20916;-68
2022/05/31 12:26:38;;;;;;;4.03;2.67;;;26.50;48.40;;;;;;5014552;28;20556;-68
2022/05/31 12:29:13;;;;;;;1.60;1.50;;;26.50;48.00;;;;;;5014405;28;20445;-67
2022/05/31 12:31:42;;;;;;;1.70;1.60;;;26.40;48.90;;;;;;5014410;28;20860;-67
2022/05/31 12:34:39;;;;;;;1.60;1.50;;;26.30;48.60;;;;;;5014128;28;20821;-68
2022/05/31 12:37:09;;;;;;;3.67;1.73;;;26.40;51.40;;;;;;5014317;28;20507;-67
2022/05/31 12:39:37;;;;;;;1.80;1.70;;;26.60;49.50;;;;;;5014306;28;20452;-68
2022/05/31 12:42:36;;;;;;;1.57;1.47;;;26.70;48.60;;;;;;5013967;28;20476;-68
2022/05/31 12:45:37;;;;;;;2.67;1.50;;;26.80;47.90;;;;;;5014531;28;20441;-68
2022/05/31 12:48:20;;;;;;;2.20;1.97;;;26.60;48.60;;;;;;5006797;28;20480;-67
2022/05/31 12:51:10;;;;;;;3.03;1.70;;;26.40;47.40;;;;;;5014239;28;21027;-68
2022/05/31 12:54:17;;;;;;;3.10;2.00;;;26.20;48.20;;;;;;5014609;28;20495;-69
2022/05/31 12:57:19;;;;;;;20.17;2.47;;;25.90;48.60;;;;;;4972926;28;20439;-68
2022/05/31 12:59:52;;;;;;;1.90;1.70;;;25.60;48.60;;;;;;5014603;28;20444;-68
2022/05/31 13:02:39;;;;;;;10.43;2.90;;;25.50;48.90;;;;;;5013786;28;20826;-67
2022/05/31 13:05:37;;;;;;;3.30;1.70;;;25.30;49.70;;;;;;5010625;28;20461;-67
2022/05/31 13:08:16;;;;;;;1.60;1.50;;;25.10;48.80;;;;;;5014047;28;20487;-67
2022/05/31 13:21:57;;;;;;;5.90;1.50;;;24.70;51.50;;;;;;5019330;28;20491;-68
2022/05/31 13:24:25;;;;;;;2.77;1.73;;;24.90;49.90;;;;;;5019288;28;20507;-69
2022/05/31 13:26:54;;;;;;;4.57;1.90;;;25.00;50.20;;;;;;5018632;28;20480;-69
2022/05/31 13:29:21;;;;;;;2.60;1.80;;;25.00;49.10;;;;;;5018228;28;20468;-69
2022/05/31 13:31:52;;;;;;;2.43;1.83;;;25.00;51.30;;;;;;5017737;28;20477;-68
2022/05/31 13:34:30;;;;;;;2.53;2.07;;;25.00;49.60;;;;;;5017596;28;20912;-67
2022/05/31 13:36:58;;;;;;;4.73;2.13;;;25.30;51.00;;;;;;5017667;28;20441;-67
2022/05/31 13:39:26;;;;;;;2.87;1.77;;;25.60;49.10;;;;;;5017758;28;20461;-67
2022/05/31 13:41:57;;;;;;;3.33;1.40;;;25.80;50.90;;;;;;5017611;28;20498;-68
2022/05/31 13:44:30;;;;;;;8.13;1.90;;;25.90;50.80;;;;;;5017886;28;20783;-69
2022/05/31 13:47:01;;;;;;;2.50;2.27;;;26.10;49.30;;;;;;5032531;28;20513;-70
2022/05/31 13:49:31;;;;;;;3.60;1.63;;;26.30;47.50;;;;;;5023971;28;20441;-68
2022/05/31 13:52:00;;;;;;;4.63;2.00;;;26.10;49.40;;;;;;5018406;28;20859;-67
2022/05/31 13:54:30;;;;;;;4.40;2.00;;;26.10;51.00;;;;;;5018233;28;20507;-67
2022/05/31 13:57:03;;;;;;;4.10;2.20;;;26.00;50.60;;;;;;5017055;28;20444;-67
2022/05/31 13:59:31;;;;;;;1.70;1.60;;;26.00;48.70;;;;;;5017017;28;20775;-67
2022/05/31 14:01:58;;;;;;;3.87;1.80;;;25.80;50.40;;;;;;5017469;28;20495;-67
2022/05/31 14:04:31;;;;;;;1.90;1.73;;;25.70;49.60;;;;;;5017161;28;20535;-67
2022/05/31 14:06:58;;;;;;;1.77;1.63;;;25.60;50.20;;;;;;5016924;28;20944;-66
2022/05/31 14:09:29;;;;;;;2.60;1.80;;;25.60;49.70;;;;;;5017030;28;20476;-67
2022/05/31 14:11:58;;;;;;;1.70;1.60;;;25.50;50.10;;;;;;5023152;28;20473;-67
2022/05/31 14:14:30;;;;;;;2.40;1.97;;;25.50;49.20;;;;;;5017674;28;20488;-68
2022/05/31 14:17:00;;;;;;;2.60;2.40;;;25.30;49.70;;;;;;5017829;28;20464;-67
2022/05/31 14:19:29;;;;;;;4.27;2.80;;;25.20;50.10;;;;;;5016815;28;20448;-68
2022/05/31 14:21:59;;;;;;;3.47;2.00;;;25.10;50.90;;;;;;5015409;28;20492;-68
2022/05/31 14:24:31;;;;;;;4.20;1.97;;;25.00;50.50;;;;;;5016864;28;20437;-68
2022/05/31 14:27:00;;;;;;;3.63;2.37;;;25.00;50.40;;;;;;5016650;28;20920;-67
2022/05/31 14:29:31;;;;;;;1.70;1.60;;;25.00;50.70;;;;;;5016698;28;20550;-67
2022/05/31 14:32:17;;;;;;;3.33;1.60;;;25.00;50.10;;;;;;5016462;28;20840;-68
2022/05/31 14:34:46;;;;;;;2.30;1.87;;;25.10;51.40;;;;;;5016810;28;20460;-68
2022/05/31 14:37:26;;;;;;;2.80;1.60;;;25.10;50.30;;;;;;5016175;28;20971;-68
2022/05/31 14:40:03;;;;;;;4.60;1.80;;;25.00;49.40;;;;;;5016376;28;20524;-68
2022/05/31 14:42:34;;;;;;;4.40;1.80;;;24.80;50.00;;;;;;5016289;28;20472;-68
2022/05/31 14:45:04;;;;;;;2.67;1.53;;;24.70;49.50;;;;;;5016406;28;20473;-68
2022/05/31 14:47:35;;;;;;;2.20;1.77;;;24.70;50.00;;;;;;5016321;28;20485;-68
2022/05/31 14:50:15;;;;;;;4.53;1.90;;;24.70;49.60;;;;;;5017235;28;20445;-69
2022/05/31 14:52:49;;;;;;;2.00;1.30;;;24.70;50.00;;;;;;5015973;28;20986;-69
2022/05/31 14:55:25;;;;;;;1.93;1.83;;;24.60;49.80;;;;;;5016325;28;20441;-67
2022/05/31 15:00:47;;;;;;;2.07;1.80;;;24.60;49.60;;;;;;5016206;28;20471;-68
2022/05/31 15:03:23;;;;;;;2.07;1.70;;;24.60;50.30;;;;;;5016290;28;20437;-68
2022/05/31 15:05:57;;;;;;;1.73;1.63;;;24.40;49.50;;;;;;5016160;28;20448;-68
2022/05/31 15:08:33;;;;;;;3.47;1.70;;;24.20;49.50;;;;;;5016148;28;20503;-68
2022/05/31 15:18:56;;;;;;;4.60;2.13;;;24.10;49.40;;;;;;5015990;28;20546;-68
2022/05/31 15:19:31;;;;;;;2.20;2.10;;;23.60;49.20;;;;;;5015825;28;20943;-68
2022/05/31 15:21:58;;;;;;;2.17;1.90;;;23.40;49.70;;;;;;5015831;28;20480;-68
2022/05/31 15:24:41;;;;;;;1.67;1.57;;;23.40;50.60;;;;;;5016055;28;20457;-68
2022/05/31 15:27:14;;;;;;;2.43;1.80;;;23.30;50.60;;;;;;5015868;28;20437;-68
2022/05/31 15:29:40;;;;;;;2.90;1.40;;;23.30;50.80;;;;;;5015607;28;20465;-68
2022/05/31 15:32:09;;;;;;;3.70;1.33;;;23.30;50.60;;;;;;5015932;28;20475;-69
2022/05/31 15:34:37;;;;;;;1.93;1.70;;;23.30;55.40;;;;;;5015841;28;20453;-69
2022/05/31 15:37:06;;;;;;;2.40;2.20;;;23.30;55.00;;;;;;5016013;28;20445;-69
2022/05/31 15:39:34;;;;;;;1.50;1.50;;;23.30;53.90;;;;;;5015722;28;20453;-68
2022/05/31 15:42:01;;;;;;;2.50;1.70;;;23.30;53.80;;;;;;5015434;28;20475;-69
2022/05/31 15:44:27;;;;;;;2.27;1.80;;;23.30;52.90;;;;;;5015183;28;20456;-69
2022/05/31 15:46:54;;;;;;;1.80;1.70;;;23.30;61.50;;;;;;5015417;28;20460;-69
2022/05/31 15:49:22;;;;;;;2.60;1.70;;;23.20;53.80;;;;;;5015747;28;20479;-69
2022/05/31 15:51:49;;;;;;;5.47;2.00;;;23.20;55.90;;;;;;5014997;28;20477;-70
2022/05/31 15:54:20;;;;;;;3.40;2.07;;;23.20;53.20;;;;;;5015035;28;20460;-70
2022/05/31 15:56:48;;;;;;;3.20;1.70;;;23.20;54.30;;;;;;5014736;28;20448;-69
2022/05/31 15:59:19;;;;;;;2.23;2.13;;;23.20;54.80;;;;;;5014500;28;20449;-70
2022/05/31 16:01:46;;;;;;;3.80;1.97;;;23.20;55.10;;;;;;5014616;28;21041;-70
2022/05/31 16:04:13;;;;;;;1.60;1.50;;;23.30;59.50;;;;;;5014566;28;20977;-70
2022/05/31 16:06:41;;;;;;;1.97;1.87;;;23.30;55.10;;;;;;5014678;28;20460;-69
2022/05/31 16:09:08;;;;;;;3.00;2.00;;;23.30;53.90;;;;;;5014566;28;20468;-70
2022/05/31 16:11:35;;;;;;;4.23;1.93;;;23.20;52.30;;;;;;5014769;28;20477;-69
2022/05/31 16:14:02;;;;;;;6.07;1.70;;;23.10;51.50;;;;;;5014646;28;20488;-69
2022/05/31 16:16:28;;;;;;;8.00;2.20;;;23.00;51.00;;;;;;5014520;28;20453;-68
2022/05/31 16:18:55;;;;;;;3.90;1.90;;;23.10;52.60;;;;;;5014765;28;20452;-67
2022/05/31 16:21:22;;;;;;;2.13;1.93;;;23.10;51.50;;;;;;5014542;28;20469;-67
2022/05/31 16:23:51;;;;;;;2.17;2.07;;;23.00;53.00;;;;;;5015215;28;20452;-67
2022/05/31 16:26:19;;;;;;;1.90;1.77;;;23.00;52.80;;;;;;5014785;28;20452;-66
2022/05/31 16:28:45;;;;;;;1.90;1.77;;;23.00;53.00;;;;;;5014542;28;20504;-66
2022/05/31 16:31:12;;;;;;;2.13;1.77;;;23.00;51.80;;;;;;5014349;28;20476;-67
2022/05/31 16:33:39;;;;;;;2.00;1.80;;;23.00;53.20;;;;;;5014350;28;20936;-67
2022/05/31 16:36:17;;;;;;;1.90;1.80;;;23.00;53.00;;;;;;5014568;28;20496;-66
2022/05/31 16:41:31;;;;;;;3.80;2.20;;;22.90;53.00;;;;;;5014462;28;20460;-67
2022/05/31 16:43:58;;;;;;;2.17;1.90;;;22.90;53.70;;;;;;5013651;28;20461;-68
2022/05/31 16:46:27;;;;;;;2.00;1.90;;;22.90;53.80;;;;;;5014338;28;20548;-67
2022/05/31 16:48:54;;;;;;;2.23;2.03;;;22.90;53.90;;;;;;5014247;28;20881;-67
2022/05/31 16:51:29;;;;;;;2.73;2.20;;;22.90;54.00;;;;;;5014302;28;20480;-67
2022/05/31 16:54:00;;;;;;;2.10;1.93;;;22.90;53.10;;;;;;5014476;28;20444;-67
2022/05/31 16:56:30;;;;;;;4.60;1.80;;;22.80;54.30;;;;;;5014254;28;20434;-66
2022/05/31 16:58:58;;;;;;;4.40;1.93;;;22.70;53.50;;;;;;5013918;28;20440;-67
2022/05/31 17:01:25;;;;;;;2.23;2.10;;;22.80;54.80;;;;;;5014034;28;20480;-66
2022/05/31 17:03:52;;;;;;;1.73;1.60;;;22.70;55.20;;;;;;5014517;28;20557;-67
2022/05/31 17:14:44;;;;;;;4.20;2.03;;;22.30;56.40;;;;;;4992576;28;20561;-67
2022/05/31 17:17:11;;;;;;;3.80;2.20;;;22.20;56.50;;;;;;5004139;28;20970;-67
2022/05/31 17:19:37;;;;;;;2.80;2.00;;;22.20;58.30;;;;;;5014194;28;20445;-67
2022/05/31 17:22:06;;;;;;;2.70;1.73;;;22.20;60.50;;;;;;5013636;28;20971;-67
2022/05/31 17:24:35;;;;;;;1.93;1.67;;;22.10;61.20;;;;;;5014083;28;20459;-66
2022/05/31 17:27:02;;;;;;;2.93;2.17;;;22.00;60.00;;;;;;5013728;28;20448;-67
2022/05/31 17:29:29;;;;;;;2.73;2.17;;;22.00;61.00;;;;;;5014051;28;20477;-67
2022/05/31 17:31:57;;;;;;;2.40;2.20;;;21.90;61.80;;;;;;5013991;28;20476;-66
2022/05/31 17:34:24;;;;;;;2.83;2.20;;;21.90;63.60;;;;;;5014378;28;20457;-67
2022/05/31 17:36:50;;;;;;;2.33;2.13;;;21.80;65.20;;;;;;5015775;28;20456;-66
2022/05/31 17:39:17;;;;;;;6.03;2.03;;;21.70;65.80;;;;;;5015567;28;20507;-67
2022/05/31 17:41:53;;;;;;;3.60;2.53;;;21.60;66.10;;;;;;5015680;28;20477;-66
2022/05/31 17:44:20;;;;;;;2.80;2.47;;;21.60;66.10;;;;;;5015404;28;20441;-67
2022/05/31 17:46:46;;;;;;;2.20;2.03;;;21.60;66.70;;;;;;5016184;28;20453;-67
2022/05/31 17:49:15;;;;;;;3.37;1.93;;;21.60;65.80;;;;;;5013593;28;20484;-67
2022/05/31 17:51:45;;;;;;;3.80;2.10;;;21.60;61.00;;;;;;5013683;28;20480;-67
2022/05/31 17:54:20;;;;;;;2.60;2.40;;;21.60;60.60;;;;;;5013970;28;20452;-67
2022/05/31 17:56:47;;;;;;;2.50;2.40;;;21.60;60.20;;;;;;5017419;28;21029;-66
2022/05/31 17:59:14;;;;;;;2.90;2.50;;;21.60;59.70;;;;;;5017892;28;20940;-67
2022/05/31 18:01:41;;;;;;;5.23;2.50;;;21.60;59.70;;;;;;5018759;28;20493;-67